Time;durP1;ratioP1;P1;durP2;ratioP2;P2;SDS_P1;SDS_P2;PMS_P1;PMS_P2;Temp;Humidity;BMP_temperature;BMP_pressure;BME280_temperature;BME280_humidity;BME280_pressure;Samples;Min_cycle;Max_cycle;Signal;HPM_P1;HPM_P2
2022/07/21 00:04:44;;;;;;;2.22;1.20;;;30.90;99.90;;;;;;5024961;28;20217;-96
2022/07/21 00:07:16;;;;;;;5.03;1.42;;;31.20;99.90;;;;;;5021035;28;20214;-96
2022/07/21 00:09:48;;;;;;;2.50;1.17;;;31.40;99.90;;;;;;5020465;28;20209;-96
2022/07/21 00:12:22;;;;;;;5.72;1.40;;;31.60;99.90;;;;;;5018484;28;20272;-96
2022/07/21 00:17:45;;;;;;;2.25;1.20;;;31.80;99.90;;;;;;4999562;28;20238;-96
2022/07/21 00:20:22;;;;;;;2.80;1.52;;;31.90;99.90;;;;;;4998309;28;20260;-96
2022/07/21 00:22:54;;;;;;;1.30;1.20;;;31.80;99.90;;;;;;4999979;28;20232;-96
2022/07/21 00:25:26;;;;;;;1.95;1.23;;;30.80;99.90;;;;;;4999147;28;20216;-96
2022/07/21 00:28:06;;;;;;;1.30;1.20;;;31.10;99.90;;;;;;4998349;28;20206;-96
2022/07/21 00:30:41;;;;;;;1.88;1.27;;;31.10;99.90;;;;;;4998615;28;20206;-96
2022/07/21 00:33:13;;;;;;;3.70;1.20;;;31.00;99.90;;;;;;4999568;28;20253;-96
2022/07/21 00:35:48;;;;;;;1.30;1.20;;;31.20;99.90;;;;;;5002246;28;20222;-96
2022/07/21 00:38:34;;;;;;;1.45;1.35;;;31.40;99.90;;;;;;4999871;28;20324;-96
2022/07/21 00:41:13;;;;;;;1.52;1.20;;;31.40;99.90;;;;;;5000701;28;20218;-96
2022/07/21 00:43:45;;;;;;;1.50;1.40;;;30.80;99.90;;;;;;5002010;28;20225;-96
2022/07/21 00:46:21;;;;;;;1.33;1.20;;;31.00;99.90;;;;;;5001045;28;20297;-96
2022/07/21 00:48:53;;;;;;;2.70;1.20;;;30.50;99.90;;;;;;4999290;28;20209;-96
2022/07/21 00:51:30;;;;;;;2.58;1.25;;;30.60;99.90;;;;;;4998561;28;20244;-96
2022/07/21 00:56:48;;;;;;;2.70;1.40;;;30.70;99.90;;;;;;4998731;28;20293;-96
2022/07/21 00:59:24;;;;;;;1.13;0.82;;;30.70;99.90;;;;;;5012613;28;20307;-96
2022/07/21 01:05:04;;;;;;;2.40;1.13;;;30.70;99.90;;;;;;5027384;28;20186;-95
2022/07/21 01:07:48;;;;;;;1.17;1.08;;;30.60;99.90;;;;;;5034433;28;20198;-96
2022/07/21 01:13:41;;;;;;;1.60;1.25;;;32.10;99.90;;;;;;5029191;28;20197;-95
2022/07/21 01:19:14;;;;;;;2.28;1.25;;;33.20;99.90;;;;;;5028182;28;20740;-94
2022/07/21 01:27:41;;;;;;;2.03;1.40;;;32.00;99.90;;;;;;5036384;28;20209;-95
2022/07/21 01:33:37;;;;;;;2.38;1.50;;;32.70;99.90;;;;;;5105012;23;20245;-95
2022/07/21 01:42:38;;;;;;;1.73;1.10;;;32.20;99.90;;;;;;5029227;28;20205;-94
2022/07/21 01:45:10;;;;;;;1.67;1.20;;;32.50;99.90;;;;;;5023908;28;20209;-95
2022/07/21 01:47:42;;;;;;;3.78;1.35;;;32.70;99.90;;;;;;5024449;28;20202;-96
2022/07/21 01:50:14;;;;;;;1.95;1.38;;;32.90;99.90;;;;;;5036507;28;20193;-96
2022/07/21 01:52:47;;;;;;;3.75;1.60;;;33.30;99.90;;;;;;5038658;28;20206;-96
2022/07/21 01:55:18;;;;;;;2.22;1.35;;;33.60;99.90;;;;;;5038289;28;20316;-96
2022/07/21 01:57:53;;;;;;;1.67;1.30;;;33.00;99.90;;;;;;5024088;28;20229;-96
2022/07/21 02:00:27;;;;;;;1.38;1.27;;;32.40;99.90;;;;;;5024125;28;20223;-96
2022/07/21 02:02:59;;;;;;;1.40;1.30;;;31.30;99.90;;;;;;5023145;28;20209;-96
2022/07/21 02:05:31;;;;;;;4.85;1.30;;;31.70;99.90;;;;;;5022680;28;20216;-96
2022/07/21 02:08:03;;;;;;;2.53;1.30;;;32.40;99.90;;;;;;5019692;28;20567;-95
2022/07/21 02:10:35;;;;;;;1.77;1.00;;;32.60;99.90;;;;;;5019366;28;20221;-96
2022/07/21 02:13:09;;;;;;;1.90;1.30;;;31.50;99.90;;;;;;5020062;28;20198;-96
2022/07/21 02:15:41;;;;;;;4.15;1.23;;;31.20;99.90;;;;;;5020326;28;20209;-96
2022/07/21 02:18:13;;;;;;;1.55;1.20;;;30.90;99.90;;;;;;5020397;28;20593;-96
2022/07/21 02:20:44;;;;;;;1.30;1.20;;;30.20;99.90;;;;;;5020809;28;20202;-96
2022/07/21 02:23:16;;;;;;;2.38;1.45;;;29.80;99.90;;;;;;5020552;28;20241;-96
2022/07/21 02:25:57;;;;;;;4.82;1.30;;;29.40;99.90;;;;;;5021970;28;20229;-96
2022/07/21 02:31:38;;;;;;;2.00;1.17;;;28.80;99.90;;;;;;5020478;28;20647;-96
2022/07/21 02:34:11;;;;;;;1.88;1.20;;;28.40;99.90;;;;;;5021175;28;20225;-96
2022/07/21 02:36:43;;;;;;;3.53;1.20;;;28.00;99.90;;;;;;5020113;28;20341;-96
2022/07/21 02:39:15;;;;;;;2.03;1.47;;;27.80;99.90;;;;;;5022668;28;20238;-96
2022/07/21 02:45:23;;;;;;;3.33;1.77;;;27.50;99.90;;;;;;5036282;28;20192;-96
2022/07/21 02:48:16;;;;;;;2.53;1.53;;;27.30;99.90;;;;;;5026688;28;20236;-96
2022/07/21 02:53:36;;;;;;;2.53;1.73;;;27.00;99.90;;;;;;5834706;23;20238;-96
2022/07/21 03:09:46;;;;;;;2.10;1.83;;;26.30;99.90;;;;;;5386543;23;20238;-96
2022/07/21 03:12:25;;;;;;;4.57;2.00;;;26.10;99.90;;;;;;5018325;28;20253;-96
2022/07/21 03:15:12;;;;;;;3.17;2.10;;;26.10;99.90;;;;;;5017918;28;20210;-96
2022/07/21 03:18:09;;;;;;;1.70;1.50;;;26.10;99.90;;;;;;5020048;28;20244;-96
2022/07/21 03:20:54;;;;;;;4.30;1.60;;;25.90;99.90;;;;;;5018514;28;20214;-96
2022/07/21 03:31:33;;;;;;;2.50;1.53;;;25.50;99.90;;;;;;4996751;28;20209;-96
2022/07/21 03:34:05;;;;;;;2.67;1.70;;;25.40;99.90;;;;;;4998884;28;20203;-96
2022/07/21 03:36:43;;;;;;;4.07;2.00;;;25.30;99.90;;;;;;4999193;28;20254;-96
2022/07/21 03:39:18;;;;;;;3.23;1.80;;;25.20;99.90;;;;;;4998294;28;20215;-96
2022/07/21 03:41:51;;;;;;;4.37;1.70;;;25.10;99.90;;;;;;4998675;28;20206;-96
2022/07/21 03:50:20;;;;;;;3.87;2.23;;;24.80;99.90;;;;;;5614632;23;20249;-96
2022/07/21 04:17:16;;;;;;;2.97;1.77;;;23.10;99.90;;;;;;4991341;28;20249;-96
2022/07/21 04:22:52;;;;;;;5.13;3.20;;;23.00;99.90;;;;;;4995689;28;20206;-96
2022/07/21 04:25:29;;;;;;;3.27;2.20;;;22.90;99.90;;;;;;4992462;28;20325;-96
2022/07/21 04:33:30;;;;;;;3.77;2.37;;;22.70;99.90;;;;;;4985875;28;20222;-95
2022/07/21 04:36:08;;;;;;;2.93;2.43;;;22.60;99.90;;;;;;4983045;28;20242;-96
2022/07/21 04:38:39;;;;;;;4.00;1.80;;;22.50;99.90;;;;;;4979842;28;20707;-96
2022/07/21 04:41:11;;;;;;;2.67;2.13;;;22.50;99.90;;;;;;4984043;28;20210;-96
2022/07/21 04:46:30;;;;;;;2.47;2.23;;;22.40;99.90;;;;;;4988733;28;20222;-96
2022/07/21 04:49:23;;;;;;;2.47;1.73;;;22.40;99.90;;;;;;4993156;28;20214;-96
2022/07/21 04:54:56;;;;;;;4.20;2.70;;;22.30;99.90;;;;;;4989904;28;20226;-95
2022/07/21 04:57:31;;;;;;;3.50;3.17;;;22.30;99.90;;;;;;4984928;28;20206;-96
2022/07/21 05:00:09;;;;;;;3.77;2.03;;;22.30;99.90;;;;;;4987157;28;20229;-96
2022/07/21 05:02:41;;;;;;;4.10;2.80;;;22.20;99.90;;;;;;4987134;28;20226;-96
2022/07/21 05:05:19;;;;;;;3.73;2.20;;;22.20;99.90;;;;;;4989204;28;20218;-96
2022/07/21 05:11:01;;;;;;;3.33;2.33;;;22.10;99.90;;;;;;4994574;28;20282;-96
2022/07/21 05:16:45;;;;;;;4.00;2.40;;;22.00;99.90;;;;;;4995525;28;20608;-96
2022/07/21 05:22:25;;;;;;;4.50;2.63;;;21.90;99.90;;;;;;5000998;28;20191;-96
2022/07/21 05:27:38;;;;;;;4.00;2.17;;;21.70;99.90;;;;;;4999336;28;20215;-96
2022/07/21 05:30:12;;;;;;;2.77;2.23;;;21.70;99.90;;;;;;4999762;28;20199;-96
2022/07/21 05:32:43;;;;;;;7.57;2.60;;;21.70;99.90;;;;;;5000377;28;20307;-96
2022/07/21 05:35:18;;;;;;;3.67;2.63;;;21.60;99.90;;;;;;5000437;28;20201;-96
2022/07/21 05:37:56;;;;;;;7.10;2.73;;;21.60;99.90;;;;;;5000597;28;20325;-96
2022/07/21 05:40:35;;;;;;;3.80;2.77;;;21.50;99.90;;;;;;4999327;28;20265;-96
2022/07/21 05:43:08;;;;;;;6.67;2.67;;;21.50;99.90;;;;;;4995450;28;20320;-96
2022/07/21 05:45:41;;;;;;;6.40;3.10;;;21.50;99.90;;;;;;4983566;28;20207;-96
2022/07/21 05:48:15;;;;;;;4.03;2.80;;;21.50;99.90;;;;;;4987442;28;20233;-96
2022/07/21 05:50:48;;;;;;;6.87;3.00;;;21.50;99.90;;;;;;4981886;28;20217;-96
2022/07/21 05:53:25;;;;;;;6.13;3.00;;;21.40;99.90;;;;;;4983433;28;20256;-96
2022/07/21 05:55:57;;;;;;;6.13;3.17;;;21.40;99.90;;;;;;4983408;28;20282;-94
2022/07/21 05:58:30;;;;;;;4.00;2.90;;;21.30;99.90;;;;;;4985045;28;20215;-96
2022/07/21 06:01:12;;;;;;;4.13;3.30;;;21.20;99.90;;;;;;4981155;28;20241;-95
2022/07/21 06:03:48;;;;;;;4.30;2.97;;;21.10;99.90;;;;;;4981445;28;20633;-95
2022/07/21 06:06:23;;;;;;;4.83;3.03;;;21.10;99.90;;;;;;4980959;28;20265;-95
2022/07/21 06:08:56;;;;;;;4.03;2.60;;;21.00;99.90;;;;;;4981512;28;20221;-95
2022/07/21 06:11:29;;;;;;;5.23;2.90;;;21.00;99.90;;;;;;4980103;28;20207;-95
2022/07/21 06:14:06;;;;;;;3.83;2.63;;;20.90;99.90;;;;;;4981906;28;20210;-95
2022/07/21 06:16:39;;;;;;;3.90;2.80;;;20.90;99.90;;;;;;4981563;28;20221;-96
2022/07/21 06:19:11;;;;;;;4.27;2.63;;;20.90;99.90;;;;;;4983386;28;20560;-95
2022/07/21 06:21:43;;;;;;;5.10;2.87;;;20.80;99.90;;;;;;4980666;28;20238;-96
2022/07/21 06:24:19;;;;;;;4.63;3.17;;;20.80;99.90;;;;;;4980767;28;20207;-96
2022/07/21 06:29:38;;;;;;;3.77;2.50;;;20.70;99.90;;;;;;4982834;28;20211;-96
2022/07/21 06:32:10;;;;;;;3.53;2.53;;;20.60;99.90;;;;;;4981192;28;20221;-96
2022/07/21 06:34:49;;;;;;;3.97;2.80;;;20.60;99.90;;;;;;4981723;28;20221;-96
2022/07/21 06:37:23;;;;;;;3.50;2.60;;;20.50;99.90;;;;;;4988705;28;20294;-95
2022/07/21 06:39:57;;;;;;;4.67;3.17;;;20.50;99.90;;;;;;4982367;28;20227;-95
2022/07/21 06:42:30;;;;;;;4.03;2.77;;;20.50;99.90;;;;;;4984623;28;20203;-95
2022/07/21 06:45:02;;;;;;;5.00;2.80;;;20.40;99.90;;;;;;4987130;28;20234;-96
2022/07/21 06:47:45;;;;;;;2.50;2.30;;;20.40;99.90;;;;;;4981584;28;20274;-96
2022/07/21 06:50:18;;;;;;;5.13;2.57;;;20.30;99.90;;;;;;4980965;28;20229;-96
2022/07/21 06:52:50;;;;;;;4.23;2.63;;;20.30;99.90;;;;;;4982010;28;20675;-96
2022/07/21 06:55:34;;;;;;;4.37;2.50;;;20.20;99.90;;;;;;4982320;28;20219;-96
2022/07/21 06:58:15;;;;;;;4.63;2.30;;;20.20;99.90;;;;;;4983390;28;20217;-96
2022/07/21 07:00:54;;;;;;;2.87;2.23;;;20.20;99.90;;;;;;4968618;28;20267;-96
2022/07/21 07:09:22;;;;;;;4.17;2.73;;;20.10;99.90;;;;;;5413137;23;20244;-96
2022/07/21 07:12:03;;;;;;;3.47;2.20;;;20.10;99.90;;;;;;5023107;28;20232;-96
2022/07/21 07:14:55;;;;;;;3.13;2.27;;;20.00;99.90;;;;;;5024449;28;20544;-96
2022/07/21 07:17:27;;;;;;;3.80;2.50;;;20.00;99.90;;;;;;5022215;28;20670;-96
2022/07/21 07:19:59;;;;;;;4.63;2.67;;;20.10;99.90;;;;;;5019153;28;20260;-95
2022/07/21 07:25:01;;;;;;;4.77;2.43;;;20.00;99.90;;;;;;4997950;28;20229;-96
2022/07/21 07:27:37;;;;;;;3.60;2.30;;;20.10;99.90;;;;;;4997800;28;20211;-96
2022/07/21 07:30:11;;;;;;;2.50;2.27;;;20.00;99.90;;;;;;4997834;28;20214;-96
2022/07/21 07:32:53;;;;;;;5.63;2.60;;;20.00;99.90;;;;;;5001385;28;20206;-96
2022/07/21 07:35:25;;;;;;;4.63;2.67;;;19.90;99.90;;;;;;5005457;28;20232;-96
2022/07/21 07:37:57;;;;;;;4.70;3.03;;;19.90;99.90;;;;;;4999851;28;20214;-96
2022/07/21 07:40:29;;;;;;;4.23;2.43;;;19.80;99.90;;;;;;5000424;28;20233;-96
2022/07/21 07:43:03;;;;;;;4.43;2.60;;;19.80;99.90;;;;;;5001513;28;20324;-95
2022/07/21 07:45:38;;;;;;;2.73;2.50;;;19.70;99.90;;;;;;4999025;28;20217;-95
2022/07/21 07:48:10;;;;;;;3.23;2.37;;;19.70;99.90;;;;;;4998714;28;20217;-96
2022/07/21 07:50:43;;;;;;;3.07;2.40;;;19.70;99.90;;;;;;4997441;28;20229;-94
2022/07/21 07:53:16;;;;;;;2.57;2.27;;;19.70;99.90;;;;;;4997450;28;20206;-95
2022/07/21 07:55:47;;;;;;;6.03;2.40;;;19.60;99.90;;;;;;4998679;28;20224;-96
2022/07/21 07:58:21;;;;;;;3.87;2.43;;;19.50;99.90;;;;;;4998735;28;20216;-96
2022/07/21 08:00:53;;;;;;;2.53;2.33;;;19.60;99.90;;;;;;4997204;28;20264;-95
2022/07/21 08:03:27;;;;;;;3.87;2.20;;;19.50;99.90;;;;;;5001709;28;20210;-95
2022/07/21 08:06:03;;;;;;;2.20;2.00;;;19.50;99.90;;;;;;4999755;28;20213;-96
2022/07/21 08:08:35;;;;;;;4.10;2.60;;;19.50;99.90;;;;;;5000247;28;20659;-96
2022/07/21 08:11:07;;;;;;;4.60;2.40;;;19.40;99.90;;;;;;4999821;28;20194;-96
2022/07/21 08:13:45;;;;;;;4.67;2.63;;;19.30;99.90;;;;;;5001660;28;20232;-96
2022/07/21 08:16:17;;;;;;;5.57;2.70;;;19.20;99.90;;;;;;4998771;28;20210;-95
2022/07/21 08:18:48;;;;;;;2.70;2.37;;;19.10;99.90;;;;;;5004033;28;20273;-95
2022/07/21 08:21:21;;;;;;;3.67;2.53;;;19.10;99.90;;;;;;5003814;28;20234;-96
2022/07/21 08:23:53;;;;;;;5.17;2.60;;;19.00;99.90;;;;;;5016271;28;20206;-95
2022/07/21 08:26:33;;;;;;;4.77;2.57;;;18.90;99.90;;;;;;5017033;28;20206;-95
2022/07/21 08:29:09;;;;;;;3.17;2.83;;;18.90;99.90;;;;;;5017266;28;20202;-96
2022/07/21 08:31:41;;;;;;;3.93;2.40;;;18.80;99.90;;;;;;5016810;28;20265;-95
2022/07/21 08:34:13;;;;;;;4.37;2.77;;;18.80;99.90;;;;;;5005845;28;20210;-96
2022/07/21 08:36:45;;;;;;;3.07;2.70;;;18.70;99.90;;;;;;5002628;28;20222;-96
2022/07/21 08:39:17;;;;;;;2.93;2.40;;;18.70;99.90;;;;;;5000713;28;20214;-96
2022/07/21 08:41:49;;;;;;;5.60;2.90;;;18.60;99.90;;;;;;5000855;28;20252;-96
2022/07/21 08:44:23;;;;;;;5.07;2.60;;;18.60;99.90;;;;;;5000841;28;20214;-96
2022/07/21 08:46:56;;;;;;;4.07;2.70;;;18.60;99.90;;;;;;5001591;28;20292;-96
2022/07/21 08:49:29;;;;;;;6.60;2.63;;;18.60;99.90;;;;;;5000477;28;20225;-96
2022/07/21 08:52:01;;;;;;;4.10;2.90;;;18.60;99.90;;;;;;5000235;28;20710;-96
2022/07/21 08:54:33;;;;;;;5.07;2.70;;;18.50;99.90;;;;;;5001075;28;20214;-95
2022/07/21 08:57:04;;;;;;;4.10;2.60;;;18.40;99.90;;;;;;5001396;28;20217;-95
2022/07/21 08:59:38;;;;;;;3.77;2.80;;;18.30;99.90;;;;;;5002195;28;20694;-96
2022/07/21 09:02:34;;;;;;;5.33;2.97;;;18.30;99.90;;;;;;5003190;28;20238;-96
2022/07/21 09:05:08;;;;;;;2.90;2.27;;;18.30;99.90;;;;;;5000912;28;20305;-96
2022/07/21 09:07:51;;;;;;;3.23;2.73;;;18.30;99.90;;;;;;5003536;28;20193;-96
2022/07/21 09:10:25;;;;;;;4.23;2.93;;;18.20;99.90;;;;;;5000411;28;20217;-96
2022/07/21 09:12:58;;;;;;;5.70;2.97;;;18.20;99.90;;;;;;5002480;28;20233;-96
2022/07/21 09:15:33;;;;;;;4.37;2.83;;;18.20;99.90;;;;;;5005820;28;20201;-96
2022/07/21 09:18:11;;;;;;;5.53;3.00;;;18.10;99.90;;;;;;5003322;28;20388;-96
2022/07/21 09:20:53;;;;;;;4.87;3.00;;;18.10;99.90;;;;;;5000846;28;20225;-96
2022/07/21 09:23:28;;;;;;;4.17;2.67;;;18.10;99.90;;;;;;5000821;28;20313;-96
2022/07/21 09:26:01;;;;;;;5.10;3.00;;;18.00;99.90;;;;;;4990286;28;20294;-96
2022/07/21 09:28:34;;;;;;;4.60;2.93;;;18.00;99.90;;;;;;4983958;28;20301;-96
2022/07/21 09:31:11;;;;;;;4.17;2.70;;;18.00;99.90;;;;;;4984141;28;20488;-96
2022/07/21 09:33:47;;;;;;;6.43;2.90;;;18.00;99.90;;;;;;4986359;28;20656;-96
2022/07/21 09:36:29;;;;;;;4.30;3.10;;;17.90;99.90;;;;;;4987576;28;20238;-96
2022/07/21 09:39:01;;;;;;;4.23;2.53;;;17.90;99.90;;;;;;4990916;28;20513;-95
2022/07/21 09:41:35;;;;;;;3.53;2.80;;;17.80;99.90;;;;;;5007710;28;20261;-96
2022/07/21 09:44:08;;;;;;;5.57;2.87;;;17.80;99.90;;;;;;5009285;28;20216;-96
2022/07/21 09:46:46;;;;;;;3.60;2.60;;;17.80;99.90;;;;;;5009157;28;20321;-95
2022/07/21 09:49:34;;;;;;;5.00;2.90;;;17.70;99.90;;;;;;5011821;28;20214;-96
2022/07/21 09:52:31;;;;;;;4.13;2.60;;;17.70;99.90;;;;;;5016327;28;20210;-96
2022/07/21 09:55:05;;;;;;;3.80;2.60;;;17.60;99.90;;;;;;5017007;28;20730;-96
2022/07/21 09:57:36;;;;;;;2.93;2.30;;;17.60;99.90;;;;;;5014072;28;20662;-96
2022/07/21 10:00:12;;;;;;;4.70;2.20;;;17.50;99.90;;;;;;5003537;28;20218;-96
2022/07/21 10:02:51;;;;;;;4.30;2.40;;;17.50;99.90;;;;;;5000288;28;20230;-96
2022/07/21 10:05:24;;;;;;;7.73;2.90;;;17.50;99.90;;;;;;4999943;28;20210;-96
2022/07/21 10:08:05;;;;;;;4.50;2.57;;;17.50;99.90;;;;;;5000432;28;20233;-96
2022/07/21 10:10:38;;;;;;;2.70;2.47;;;17.40;99.90;;;;;;4999349;28;20232;-96
2022/07/21 10:13:30;;;;;;;2.40;2.20;;;17.40;99.90;;;;;;4999575;28;20683;-95
2022/07/21 10:16:04;;;;;;;2.73;2.30;;;17.30;99.90;;;;;;4999693;28;20213;-96
2022/07/21 10:18:45;;;;;;;4.30;2.53;;;17.20;99.90;;;;;;4999861;28;20221;-96
2022/07/21 10:21:28;;;;;;;4.50;2.20;;;17.20;99.90;;;;;;4998814;28;20270;-96
2022/07/21 10:24:00;;;;;;;3.43;2.27;;;17.20;99.90;;;;;;4999722;28;20245;-96
2022/07/21 10:26:32;;;;;;;3.30;2.30;;;17.20;99.90;;;;;;5000164;28;20262;-95
2022/07/21 10:29:04;;;;;;;2.63;2.27;;;17.10;99.90;;;;;;5000672;28;20722;-95
2022/07/21 10:31:45;;;;;;;4.67;2.37;;;17.10;99.90;;;;;;4999321;28;20710;-96
2022/07/21 10:34:38;;;;;;;4.20;2.00;;;17.00;99.90;;;;;;5000093;28;20211;-96
2022/07/21 10:37:11;;;;;;;4.63;2.20;;;17.00;99.90;;;;;;5002263;28;20206;-95
2022/07/21 10:39:44;;;;;;;2.67;2.23;;;16.90;99.90;;;;;;4999722;28;20580;-96
2022/07/21 10:42:19;;;;;;;4.57;2.20;;;16.90;99.90;;;;;;4998652;28;20238;-96
2022/07/21 10:44:51;;;;;;;4.07;2.20;;;16.90;99.90;;;;;;4998930;28;20291;-96
2022/07/21 10:47:28;;;;;;;3.50;2.33;;;16.90;99.90;;;;;;4998952;28;20297;-95
2022/07/21 10:50:09;;;;;;;4.70;2.20;;;16.90;99.90;;;;;;4998763;28;20214;-96
2022/07/21 10:53:01;;;;;;;4.90;2.30;;;16.90;99.90;;;;;;4998523;28;20237;-95
2022/07/21 10:55:33;;;;;;;3.87;2.73;;;16.80;99.90;;;;;;4998750;28;20208;-95
2022/07/21 10:58:20;;;;;;;4.50;2.40;;;16.80;99.90;;;;;;5003818;28;20210;-95
2022/07/21 11:00:54;;;;;;;3.80;1.93;;;16.80;99.90;;;;;;4998806;28;20214;-94
2022/07/21 11:03:33;;;;;;;3.33;2.20;;;16.80;99.90;;;;;;5001493;28;20272;-95
2022/07/21 11:06:22;;;;;;;3.53;2.30;;;16.80;99.90;;;;;;5001381;28;20213;-95
2022/07/21 11:09:17;;;;;;;3.40;2.30;;;16.70;99.90;;;;;;4983962;28;20207;-94
2022/07/21 11:12:03;;;;;;;3.87;2.00;;;16.70;99.90;;;;;;4984035;28;20215;-95
2022/07/21 11:14:40;;;;;;;3.20;2.07;;;16.60;99.90;;;;;;4978738;28;20207;-96
2022/07/21 11:17:30;;;;;;;3.57;2.40;;;16.50;99.90;;;;;;4978590;28;20239;-96
2022/07/21 11:20:03;;;;;;;4.83;2.73;;;16.50;99.90;;;;;;4994567;28;20285;-95
2022/07/21 11:22:36;;;;;;;2.20;1.90;;;16.50;99.90;;;;;;4997174;28;20238;-96
2022/07/21 11:25:09;;;;;;;2.57;2.33;;;16.50;99.90;;;;;;4998039;28;20302;-96
2022/07/21 11:27:41;;;;;;;3.83;2.63;;;16.50;99.90;;;;;;4998026;28;20678;-96
2022/07/21 11:30:14;;;;;;;4.33;2.40;;;16.50;99.90;;;;;;4997182;28;20245;-95
2022/07/21 11:32:49;;;;;;;3.43;2.50;;;16.60;99.90;;;;;;4998314;28;20207;-96
2022/07/21 11:35:21;;;;;;;4.30;1.90;;;16.60;99.90;;;;;;4998083;28;20221;-96
2022/07/21 11:37:55;;;;;;;3.27;2.53;;;16.50;99.90;;;;;;4998241;28;20245;-96
2022/07/21 11:40:30;;;;;;;4.37;2.20;;;16.50;99.90;;;;;;4997835;28;20213;-94
2022/07/21 11:43:03;;;;;;;4.17;2.40;;;16.40;99.90;;;;;;5004065;28;20241;-96
2022/07/21 11:45:35;;;;;;;7.13;2.40;;;16.40;99.90;;;;;;4997564;28;20218;-96
2022/07/21 11:48:07;;;;;;;2.93;2.03;;;16.40;99.90;;;;;;4998489;28;20213;-94
2022/07/21 11:50:39;;;;;;;3.30;2.27;;;16.30;99.90;;;;;;4996883;28;20214;-95
2022/07/21 11:53:15;;;;;;;3.00;2.20;;;16.20;99.90;;;;;;4998365;28;20217;-94
2022/07/21 11:55:48;;;;;;;4.00;2.50;;;16.20;99.90;;;;;;4999285;28;20252;-95
2022/07/21 11:58:21;;;;;;;6.33;3.03;;;16.20;99.90;;;;;;4998503;28;20210;-95
2022/07/21 12:01:07;;;;;;;2.37;2.13;;;16.20;99.90;;;;;;4996299;28;20214;-95
2022/07/21 12:03:52;;;;;;;4.20;2.33;;;16.10;99.90;;;;;;4998183;28;20261;-94
2022/07/21 12:06:27;;;;;;;2.87;2.07;;;16.20;99.90;;;;;;4998679;28;20305;-96
2022/07/21 12:09:02;;;;;;;3.67;2.40;;;16.20;99.90;;;;;;4979027;28;20713;-95
2022/07/21 12:11:38;;;;;;;3.53;2.20;;;16.10;99.90;;;;;;4978565;28;20270;-95
2022/07/21 12:14:10;;;;;;;4.53;2.40;;;16.10;99.90;;;;;;4979995;28;20317;-95
2022/07/21 12:16:51;;;;;;;4.37;2.47;;;16.10;99.90;;;;;;4992533;28;20233;-94
2022/07/21 12:19:24;;;;;;;3.07;2.40;;;16.20;99.90;;;;;;5011063;28;20233;-96
2022/07/21 12:21:56;;;;;;;2.37;2.07;;;16.10;99.90;;;;;;5014839;28;20190;-96
2022/07/21 12:24:51;;;;;;;2.70;2.40;;;16.10;99.90;;;;;;5016221;28;20230;-94
2022/07/21 12:27:24;;;;;;;4.43;2.20;;;16.10;99.90;;;;;;5004186;28;20293;-96
2022/07/21 12:29:57;;;;;;;1.97;1.77;;;16.10;99.90;;;;;;5006795;28;20270;-95
2022/07/21 12:32:45;;;;;;;2.53;2.20;;;16.10;99.90;;;;;;5004075;28;20297;-96
2022/07/21 12:35:28;;;;;;;3.67;1.90;;;16.10;99.90;;;;;;5000465;28;20241;-95
2022/07/21 12:38:13;;;;;;;5.10;2.63;;;16.10;99.90;;;;;;4998050;28;20289;-96
2022/07/21 12:40:52;;;;;;;4.17;2.13;;;16.10;99.90;;;;;;5001366;28;20206;-96
2022/07/21 12:43:45;;;;;;;3.83;2.17;;;16.10;99.90;;;;;;4997557;28;20607;-96
2022/07/21 12:46:22;;;;;;;4.40;2.30;;;16.10;99.90;;;;;;4997376;28;20213;-96
2022/07/21 12:49:04;;;;;;;4.80;2.30;;;16.10;99.90;;;;;;4999820;28;20224;-96
2022/07/21 12:51:43;;;;;;;4.07;2.20;;;16.10;99.90;;;;;;4999017;28;20221;-96
2022/07/21 12:54:15;;;;;;;2.83;2.07;;;16.00;99.90;;;;;;5002084;28;20191;-95
2022/07/21 12:56:49;;;;;;;4.23;2.70;;;16.00;99.90;;;;;;4999464;28;20214;-96
2022/07/21 12:59:22;;;;;;;3.03;2.40;;;16.00;99.90;;;;;;4997413;28;20623;-95
2022/07/21 13:01:53;;;;;;;3.50;2.40;;;15.90;99.90;;;;;;4996194;28;20489;-95
2022/07/21 13:04:25;;;;;;;3.97;2.20;;;15.90;99.90;;;;;;4997830;28;20750;-95
2022/07/21 13:06:59;;;;;;;4.37;2.27;;;15.80;99.90;;;;;;4997562;28;20800;-96
2022/07/21 13:09:31;;;;;;;3.97;2.47;;;15.90;99.90;;;;;;4996408;28;20237;-96
2022/07/21 13:12:05;;;;;;;5.50;2.50;;;15.80;99.90;;;;;;4650013;28;9999765;-96
2022/07/21 13:14:37;;;;;;;5.13;2.47;;;15.90;99.90;;;;;;4996657;28;20673;-96
2022/07/21 13:17:10;;;;;;;4.07;2.63;;;15.90;99.90;;;;;;4996316;28;20298;-95
2022/07/21 13:19:42;;;;;;;4.17;2.83;;;15.90;99.90;;;;;;4984111;28;20218;-94
2022/07/21 13:22:19;;;;;;;5.53;2.40;;;15.90;99.90;;;;;;4998721;28;20210;-95
2022/07/21 13:24:50;;;;;;;6.40;2.90;;;15.90;99.90;;;;;;5003013;28;20254;-95
2022/07/21 13:27:24;;;;;;;6.17;2.93;;;16.00;99.90;;;;;;5001486;28;20213;-96
2022/07/21 13:29:56;;;;;;;8.47;2.83;;;16.00;99.90;;;;;;5120389;23;20324;-96
2022/07/21 13:32:28;;;;;;;3.13;2.83;;;15.90;99.90;;;;;;5019353;28;20241;-96
2022/07/21 13:35:00;;;;;;;5.17;2.80;;;16.10;99.90;;;;;;5020453;28;20308;-96
2022/07/21 13:37:51;;;;;;;10.10;3.77;;;16.10;99.90;;;;;;5023082;28;20209;-96
2022/07/21 13:40:29;;;;;;;6.50;3.93;;;16.20;99.90;;;;;;5019754;28;20284;-96
2022/07/21 13:43:33;;;;;;;9.80;3.97;;;16.30;99.90;;;;;;5020173;28;20265;-96
2022/07/21 13:46:09;;;;;;;8.67;4.10;;;16.40;99.90;;;;;;5019580;28;20259;-96
2022/07/21 13:48:41;;;;;;;11.03;4.40;;;16.40;99.90;;;;;;5022236;28;20228;-93
2022/07/21 13:51:16;;;;;;;9.80;4.13;;;16.50;99.90;;;;;;5022190;28;20230;-95
2022/07/21 13:53:50;;;;;;;9.43;4.53;;;16.50;99.90;;;;;;5020262;28;20236;-95
2022/07/21 13:56:22;;;;;;;8.23;4.20;;;16.60;99.90;;;;;;5022298;28;20269;-95
2022/07/21 13:58:56;;;;;;;11.40;4.37;;;16.60;99.90;;;;;;5020927;28;20217;-95
2022/07/21 14:01:28;;;;;;;11.10;4.40;;;16.70;99.90;;;;;;5020320;28;20297;-96
2022/07/21 14:04:01;;;;;;;13.83;4.17;;;16.70;99.90;;;;;;5023391;28;20257;-95
2022/07/21 14:06:34;;;;;;;8.93;3.90;;;16.80;99.90;;;;;;5025661;28;20225;-96
2022/07/21 14:09:12;;;;;;;8.93;3.93;;;16.80;99.90;;;;;;5011569;28;20207;-94
2022/07/21 14:11:44;;;;;;;11.87;3.77;;;16.80;99.90;;;;;;5017961;28;20200;-95
2022/07/21 14:14:21;;;;;;;10.03;3.60;;;16.90;99.90;;;;;;5018586;28;20270;-96
2022/07/21 14:16:53;;;;;;;6.37;3.80;;;17.00;99.90;;;;;;5032382;28;20208;-95
2022/07/21 14:19:24;;;;;;;9.47;3.73;;;17.00;99.90;;;;;;5036139;28;20308;-94
2022/07/21 14:21:56;;;;;;;11.80;3.93;;;17.00;99.90;;;;;;5025887;28;20210;-94
2022/07/21 14:27:15;;;;;;;8.53;3.73;;;17.10;99.90;;;;;;5020576;28;20229;-96
2022/07/21 14:29:51;;;;;;;7.80;3.90;;;17.20;99.90;;;;;;5023926;28;20237;-95
2022/07/21 14:32:25;;;;;;;7.93;3.60;;;17.30;99.90;;;;;;5020161;28;20232;-95
2022/07/21 14:34:58;;;;;;;8.00;3.20;;;17.30;99.90;;;;;;5019309;28;20336;-96
2022/07/21 14:37:30;;;;;;;5.90;3.40;;;17.30;99.90;;;;;;5019472;28;20208;-95
2022/07/21 14:40:03;;;;;;;7.10;3.30;;;17.40;99.90;;;;;;5020480;28;20202;-96
2022/07/21 14:42:35;;;;;;;9.07;3.60;;;17.40;99.90;;;;;;5019885;28;20201;-95
2022/07/21 14:45:11;;;;;;;7.90;3.27;;;17.50;99.90;;;;;;5018924;28;20454;-96
2022/07/21 14:47:51;;;;;;;6.80;3.20;;;17.60;99.90;;;;;;5026918;28;20220;-96
2022/07/21 14:50:24;;;;;;;10.13;3.67;;;17.90;99.90;;;;;;5018292;28;20206;-96
2022/07/21 14:55:57;;;;;;;5.27;2.93;;;18.50;99.90;;;;;;5020586;28;20210;-95
2022/07/21 14:58:30;;;;;;;6.93;3.30;;;19.00;99.90;;;;;;5019564;28;20264;-95
2022/07/21 15:13:17;;;;;;;5.03;2.70;;;20.60;99.90;;;;;;5030742;28;20198;-96
2022/07/21 15:18:54;;;;;;;9.50;2.93;;;21.00;99.90;;;;;;5029938;28;20237;-96
2022/07/21 15:21:33;;;;;;;6.47;2.60;;;21.50;99.90;;;;;;5033146;28;20201;-95
2022/07/21 15:27:12;;;;;;;7.53;2.90;;;21.10;99.90;;;;;;5028899;28;20232;-96
2022/07/21 15:38:58;;;;;;;6.70;2.80;;;19.90;99.90;;;;;;5030896;28;20212;-96
2022/07/21 15:41:37;;;;;;;6.80;2.87;;;20.00;99.90;;;;;;5024071;28;20221;-96
2022/07/21 15:44:31;;;;;;;5.47;2.63;;;20.00;99.90;;;;;;5026033;28;20240;-96
2022/07/21 15:47:15;;;;;;;9.93;3.10;;;19.60;99.90;;;;;;5029995;28;20189;-96
2022/07/21 15:49:52;;;;;;;5.60;2.50;;;19.50;99.90;;;;;;5022048;28;20265;-96
2022/07/21 15:52:28;;;;;;;7.10;2.43;;;19.70;99.90;;;;;;5021856;28;20220;-96
2022/07/21 15:57:55;;;;;;;6.73;2.90;;;19.80;99.90;;;;;;5022605;28;20198;-96
2022/07/21 16:03:25;;;;;;;4.50;2.63;;;20.00;99.90;;;;;;5029714;28;20201;-96
2022/07/21 16:05:57;;;;;;;4.77;2.80;;;20.00;99.90;;;;;;5023824;28;20261;-96
2022/07/21 16:08:33;;;;;;;5.80;2.57;;;19.90;99.90;;;;;;5019192;28;20308;-96
2022/07/21 16:11:05;;;;;;;7.60;2.90;;;20.00;99.90;;;;;;5019302;28;20213;-96
2022/07/21 16:16:23;;;;;;;6.57;2.40;;;20.00;99.90;;;;;;5020073;28;20217;-93
2022/07/21 16:19:10;;;;;;;8.87;2.83;;;20.00;99.90;;;;;;5023060;28;20248;-96
2022/07/21 16:21:55;;;;;;;7.93;2.70;;;20.00;99.90;;;;;;5017604;28;20256;-96
2022/07/21 16:24:30;;;;;;;4.47;2.53;;;20.10;99.90;;;;;;5020223;28;20205;-95